Grand Marais, Minnesota
Current Conditions -  °F | °C
As of 12:13 PM on Saturday 25 Oct 2014 (Local Time) from KCKC Reporting Station
Clear Clear  
Wind Chill: 50°   Ceiling: Unl
Heat Index: 50°   Visibility: 10mi
Dew Point: 28°   Wind: 20mph
Humidity: 43%   Direction: 270°W
Pressure: 29.75"   Gusts: 36mph
Location:  47.75°N, 90.33°W
Report Text: KCKC 251713Z AUTO 27017G31KT 229V319 10SM CLR 10/M02 A2975 RMK AO2
Loading
Personal Weather Stations






























Interactive Weather Map
Tropical Storm Tracking
New forecast layout! Learn more

10-Day Weather Forecast

Advertisements
Track Severe Weather on mobile